sensor_id;sensor_type;location;lat;lon;timestamp;pressure;altitude;pressure_sealevel;temperature;humidity
79584;BME280;69053;57.338;18.700;2023-06-10T00:01:32;102648.13;;;8.86;77.72
79584;BME280;69053;57.338;18.700;2023-06-10T00:06:36;102648.97;;;8.86;77.82
79584;BME280;69053;57.338;18.700;2023-06-10T00:11:37;102652.06;;;8.91;77.80
79584;BME280;69053;57.338;18.700;2023-06-10T00:16:37;102652.59;;;8.95;77.84
79584;BME280;69053;57.338;18.700;2023-06-10T00:21:39;102656.38;;;9.02;78.49
79584;BME280;69053;57.338;18.700;2023-06-10T00:26:45;102652.34;;;9.06;77.46
79584;BME280;69053;57.338;18.700;2023-06-10T00:31:45;102652.81;;;9.01;77.37
79584;BME280;69053;57.338;18.700;2023-06-10T00:36:47;102641.19;;;8.91;76.94
79584;BME280;69053;57.338;18.700;2023-06-10T00:41:47;102661.56;;;8.87;77.39
79584;BME280;69053;57.338;18.700;2023-06-10T00:46:48;102661.06;;;8.92;77.43
79584;BME280;69053;57.338;18.700;2023-06-10T00:51:52;102651.84;;;8.85;77.42
79584;BME280;69053;57.338;18.700;2023-06-10T00:56:53;102659.16;;;8.84;77.88
79584;BME280;69053;57.338;18.700;2023-06-10T01:01:53;102657.72;;;8.80;77.42
79584;BME280;69053;57.338;18.700;2023-06-10T01:17:25;102665.41;;;8.85;77.71
79584;BME280;69053;57.338;18.700;2023-06-10T01:22:27;102668.13;;;8.85;77.66
79584;BME280;69053;57.338;18.700;2023-06-10T01:27:37;102681.41;;;8.88;77.49
79584;BME280;69053;57.338;18.700;2023-06-10T01:32:44;102687.69;;;8.88;77.40
79584;BME280;69053;57.338;18.700;2023-06-10T01:37:46;102682.25;;;8.88;78.00
79584;BME280;69053;57.338;18.700;2023-06-10T01:42:47;102687.69;;;8.88;78.23
79584;BME280;69053;57.338;18.700;2023-06-10T01:47:47;102681.41;;;8.88;77.64
79584;BME280;69053;57.338;18.700;2023-06-10T01:52:48;102692.84;;;8.91;78.25
79584;BME280;69053;57.338;18.700;2023-06-10T01:57:48;102695.69;;;8.90;77.98
79584;BME280;69053;57.338;18.700;2023-06-10T02:02:49;102695.53;;;8.91;77.76
79584;BME280;69053;57.338;18.700;2023-06-10T02:07:50;102700.38;;;8.97;77.99
79584;BME280;69053;57.338;18.700;2023-06-10T02:12:51;102697.16;;;9.02;78.44
79584;BME280;69053;57.338;18.700;2023-06-10T02:17:52;102695.31;;;9.03;78.52
79584;BME280;69053;57.338;18.700;2023-06-10T02:22:52;102699.09;;;9.10;79.54
79584;BME280;69053;57.338;18.700;2023-06-10T02:27:53;102702.44;;;9.22;79.91
79584;BME280;69053;57.338;18.700;2023-06-10T02:32:53;102704.03;;;9.32;79.23
79584;BME280;69053;57.338;18.700;2023-06-10T02:37:56;102707.81;;;9.39;79.12
79584;BME280;69053;57.338;18.700;2023-06-10T02:42:57;102715.00;;;9.49;80.16
79584;BME280;69053;57.338;18.700;2023-06-10T02:47:58;102705.44;;;9.63;80.27
79584;BME280;69053;57.338;18.700;2023-06-10T02:52:59;102707.53;;;9.77;80.57
79584;BME280;69053;57.338;18.700;2023-06-10T02:57:59;102715.63;;;9.95;79.81
79584;BME280;69053;57.338;18.700;2023-06-10T03:03:00;102722.00;;;10.12;80.69
79584;BME280;69053;57.338;18.700;2023-06-10T03:08:03;102728.84;;;10.24;79.46
79584;BME280;69053;57.338;18.700;2023-06-10T03:13:04;102735.03;;;10.35;79.54
79584;BME280;69053;57.338;18.700;2023-06-10T03:18:05;102745.81;;;10.44;80.13
79584;BME280;69053;57.338;18.700;2023-06-10T03:23:07;102751.78;;;10.48;79.44
79584;BME280;69053;57.338;18.700;2023-06-10T03:28:07;102754.38;;;10.58;79.84
79584;BME280;69053;57.338;18.700;2023-06-10T03:33:08;102764.25;;;10.67;79.38
79584;BME280;69053;57.338;18.700;2023-06-10T03:38:08;102758.84;;;10.83;79.45
79584;BME280;69053;57.338;18.700;2023-06-10T03:43:09;102759.38;;;11.03;78.93
79584;BME280;69053;57.338;18.700;2023-06-10T03:48:10;102776.94;;;11.17;78.59
79584;BME280;69053;57.338;18.700;2023-06-10T03:53:11;102772.72;;;11.31;78.76
79584;BME280;69053;57.338;18.700;2023-06-10T03:58:11;102772.84;;;11.46;78.04
79584;BME280;69053;57.338;18.700;2023-06-10T04:03:15;102776.09;;;11.66;77.82
79584;BME280;69053;57.338;18.700;2023-06-10T04:08:15;102773.81;;;11.86;77.86
79584;BME280;69053;57.338;18.700;2023-06-10T04:13:16;102779.44;;;12.01;76.60
79584;BME280;69053;57.338;18.700;2023-06-10T04:18:16;102768.34;;;12.11;76.20
79584;BME280;69053;57.338;18.700;2023-06-10T04:23:17;102776.50;;;12.19;75.30
79584;BME280;69053;57.338;18.700;2023-06-10T04:28:18;102781.91;;;12.27;75.06
79584;BME280;69053;57.338;18.700;2023-06-10T04:33:19;102790.59;;;12.39;75.51
79584;BME280;69053;57.338;18.700;2023-06-10T04:38:19;102780.63;;;12.46;75.61
79584;BME280;69053;57.338;18.700;2023-06-10T04:43:20;102784.31;;;12.62;74.63
79584;BME280;69053;57.338;18.700;2023-06-10T04:48:22;102789.88;;;12.76;74.77
79584;BME280;69053;57.338;18.700;2023-06-10T04:53:25;102800.44;;;12.88;73.88
79584;BME280;69053;57.338;18.700;2023-06-10T04:58:26;102801.34;;;13.03;73.52
79584;BME280;69053;57.338;18.700;2023-06-10T05:03:26;102809.91;;;13.23;72.55
79584;BME280;69053;57.338;18.700;2023-06-10T05:08:27;102807.94;;;13.40;72.17
79584;BME280;69053;57.338;18.700;2023-06-10T05:13:27;102802.69;;;13.54;71.31
79584;BME280;69053;57.338;18.700;2023-06-10T05:18:28;102821.50;;;13.72;71.02
79584;BME280;69053;57.338;18.700;2023-06-10T05:23:28;102820.91;;;13.84;70.38
79584;BME280;69053;57.338;18.700;2023-06-10T05:28:29;102821.47;;;13.95;69.61
79584;BME280;69053;57.338;18.700;2023-06-10T05:33:30;102814.69;;;14.05;69.60
79584;BME280;69053;57.338;18.700;2023-06-10T05:38:30;102829.25;;;14.21;69.07
79584;BME280;69053;57.338;18.700;2023-06-10T05:43:34;102827.06;;;14.31;68.50
79584;BME280;69053;57.338;18.700;2023-06-10T05:48:36;102835.19;;;14.39;67.76
79584;BME280;69053;57.338;18.700;2023-06-10T05:53:37;102828.38;;;14.50;66.91
79584;BME280;69053;57.338;18.700;2023-06-10T05:58:38;102830.38;;;14.56;67.47
79584;BME280;69053;57.338;18.700;2023-06-10T06:03:39;102826.50;;;14.66;66.61
79584;BME280;69053;57.338;18.700;2023-06-10T06:08:39;102843.31;;;14.77;66.06
79584;BME280;69053;57.338;18.700;2023-06-10T06:13:40;102834.00;;;14.93;65.32
79584;BME280;69053;57.338;18.700;2023-06-10T06:18:42;102844.97;;;14.93;65.18
79584;BME280;69053;57.338;18.700;2023-06-10T06:23:43;102844.47;;;15.05;65.41
79584;BME280;69053;57.338;18.700;2023-06-10T06:28:43;102843.47;;;15.27;64.08
79584;BME280;69053;57.338;18.700;2023-06-10T06:33:44;102844.38;;;15.34;63.22
79584;BME280;69053;57.338;18.700;2023-06-10T06:38:45;102850.31;;;15.38;62.84
79584;BME280;69053;57.338;18.700;2023-06-10T06:43:45;102858.88;;;15.50;62.17
79584;BME280;69053;57.338;18.700;2023-06-10T06:48:46;102864.13;;;15.66;61.75
79584;BME280;69053;57.338;18.700;2023-06-10T06:53:46;102872.75;;;15.85;60.86
79584;BME280;69053;57.338;18.700;2023-06-10T06:58:47;102882.31;;;15.89;59.46
79584;BME280;69053;57.338;18.700;2023-06-10T07:03:48;102888.25;;;15.92;59.85
79584;BME280;69053;57.338;18.700;2023-06-10T07:08:49;102890.19;;;15.99;59.03
79584;BME280;69053;57.338;18.700;2023-06-10T07:13:49;102891.56;;;16.09;58.33
79584;BME280;69053;57.338;18.700;2023-06-10T07:18:50;102891.63;;;16.16;57.58
79584;BME280;69053;57.338;18.700;2023-06-10T07:23:51;102911.13;;;16.28;56.92
79584;BME280;69053;57.338;18.700;2023-06-10T07:28:54;102915.84;;;16.34;56.44
79584;BME280;69053;57.338;18.700;2023-06-10T07:33:54;102919.22;;;16.36;55.82
79584;BME280;69053;57.338;18.700;2023-06-10T07:38:55;102915.09;;;16.47;55.51
79584;BME280;69053;57.338;18.700;2023-06-10T07:43:55;102920.91;;;16.65;54.64
79584;BME280;69053;57.338;18.700;2023-06-10T07:48:56;102922.25;;;16.76;53.89
79584;BME280;69053;57.338;18.700;2023-06-10T07:53:57;102931.16;;;16.78;54.12
79584;BME280;69053;57.338;18.700;2023-06-10T07:58:57;102925.72;;;16.85;53.50
79584;BME280;69053;57.338;18.700;2023-06-10T08:03:58;102925.09;;;16.96;52.23
79584;BME280;69053;57.338;18.700;2023-06-10T08:08:58;102934.03;;;17.05;51.33
79584;BME280;69053;57.338;18.700;2023-06-10T08:14:00;102929.03;;;17.22;50.80
79584;BME280;69053;57.338;18.700;2023-06-10T08:19:00;102939.47;;;17.33;50.10
79584;BME280;69053;57.338;18.700;2023-06-10T08:24:01;102938.84;;;17.44;48.87
79584;BME280;69053;57.338;18.700;2023-06-10T08:29:02;102947.56;;;17.61;48.95
79584;BME280;69053;57.338;18.700;2023-06-10T08:34:02;102939.34;;;17.75;48.92
79584;BME280;69053;57.338;18.700;2023-06-10T08:39:03;102945.28;;;17.78;47.71
79584;BME280;69053;57.338;18.700;2023-06-10T08:44:19;102950.78;;;17.85;47.27
79584;BME280;69053;57.338;18.700;2023-06-10T08:49:23;102948.31;;;18.10;47.43
79584;BME280;69053;57.338;18.700;2023-06-10T08:54:29;102947.22;;;18.25;45.66
79584;BME280;69053;57.338;18.700;2023-06-10T08:59:30;102942.75;;;18.37;44.51
79584;BME280;69053;57.338;18.700;2023-06-10T09:04:31;102946.75;;;18.48;44.54
79584;BME280;69053;57.338;18.700;2023-06-10T09:09:32;102948.84;;;18.72;44.26
79584;BME280;69053;57.338;18.700;2023-06-10T09:14:35;102946.50;;;18.76;42.55
79584;BME280;69053;57.338;18.700;2023-06-10T09:19:36;102956.72;;;18.62;41.28
79584;BME280;69053;57.338;18.700;2023-06-10T09:24:39;102953.06;;;18.82;41.32
79584;BME280;69053;57.338;18.700;2023-06-10T09:29:58;102961.72;;;19.12;40.01
79584;BME280;69053;57.338;18.700;2023-06-10T09:34:59;102953.72;;;19.36;38.67
79584;BME280;69053;57.338;18.700;2023-06-10T09:40:04;102954.69;;;19.55;37.35
79584;BME280;69053;57.338;18.700;2023-06-10T09:45:06;102952.66;;;19.75;35.38
79584;BME280;69053;57.338;18.700;2023-06-10T09:50:08;102948.50;;;19.91;35.95
79584;BME280;69053;57.338;18.700;2023-06-10T09:55:09;102941.13;;;20.10;33.83
79584;BME280;69053;57.338;18.700;2023-06-10T10:00:13;102942.53;;;19.94;34.33
79584;BME280;69053;57.338;18.700;2023-06-10T10:05:15;102943.72;;;20.05;33.66
79584;BME280;69053;57.338;18.700;2023-06-10T10:10:19;102947.22;;;20.19;34.13
79584;BME280;69053;57.338;18.700;2023-06-10T10:15:21;102923.91;;;20.08;30.84
79584;BME280;69053;57.338;18.700;2023-06-10T10:20:27;102915.13;;;20.11;31.82
79584;BME280;69053;57.338;18.700;2023-06-10T10:44:07;102907.66;;;20.37;32.06
79584;BME280;69053;57.338;18.700;2023-06-10T10:49:13;102918.66;;;20.43;31.45
79584;BME280;69053;57.338;18.700;2023-06-10T10:54:15;102916.78;;;20.63;32.28
79584;BME280;69053;57.338;18.700;2023-06-10T10:59:15;102914.94;;;20.75;31.25
79584;BME280;69053;57.338;18.700;2023-06-10T11:04:20;102920.78;;;20.85;32.12
79584;BME280;69053;57.338;18.700;2023-06-10T11:09:36;102903.53;;;21.02;31.18
79584;BME280;69053;57.338;18.700;2023-06-10T11:14:41;102909.94;;;20.84;31.36
79584;BME280;69053;57.338;18.700;2023-06-10T11:19:58;102905.84;;;20.49;31.02
79584;BME280;69053;57.338;18.700;2023-06-10T11:25:03;102911.69;;;20.59;30.37
79584;BME280;69053;57.338;18.700;2023-06-10T11:30:19;102917.53;;;20.70;30.58
79584;BME280;69053;57.338;18.700;2023-06-10T11:35:24;102906.09;;;20.66;30.08
79584;BME280;69053;57.338;18.700;2023-06-10T11:40:28;102899.56;;;20.79;31.16
79584;BME280;69053;57.338;18.700;2023-06-10T11:45:34;102897.59;;;20.98;32.71
79584;BME280;69053;57.338;18.700;2023-06-10T11:56:57;102904.66;;;21.12;32.22
79584;BME280;69053;57.338;18.700;2023-06-10T12:02:15;102897.00;;;20.96;31.80
79584;BME280;69053;57.338;18.700;2023-06-10T12:07:20;102894.59;;;20.26;33.47
79584;BME280;69053;57.338;18.700;2023-06-10T12:12:38;102903.66;;;20.33;34.42
79584;BME280;69053;57.338;18.700;2023-06-10T12:18:04;102895.22;;;20.65;33.80
79584;BME280;69053;57.338;18.700;2023-06-10T12:23:11;102895.06;;;20.96;34.11
79584;BME280;69053;57.338;18.700;2023-06-10T12:28:13;102904.50;;;21.07;34.36
79584;BME280;69053;57.338;18.700;2023-06-10T12:33:21;102901.78;;;20.89;34.44
79584;BME280;69053;57.338;18.700;2023-06-10T12:38:25;102895.72;;;21.10;34.29
79584;BME280;69053;57.338;18.700;2023-06-10T12:43:31;102896.13;;;20.95;33.38
79584;BME280;69053;57.338;18.700;2023-06-10T12:48:32;102896.41;;;20.75;33.50
79584;BME280;69053;57.338;18.700;2023-06-10T12:53:33;102898.16;;;20.88;33.68
79584;BME280;69053;57.338;18.700;2023-06-10T12:58:33;102894.16;;;21.03;33.00
79584;BME280;69053;57.338;18.700;2023-06-10T13:03:34;102883.69;;;20.68;33.10
79584;BME280;69053;57.338;18.700;2023-06-10T13:08:35;102887.69;;;20.53;33.39
79584;BME280;69053;57.338;18.700;2023-06-10T13:13:37;102885.41;;;20.87;32.27
79584;BME280;69053;57.338;18.700;2023-06-10T13:18:37;102887.44;;;20.92;32.61
79584;BME280;69053;57.338;18.700;2023-06-10T13:23:38;102878.03;;;21.11;31.57
79584;BME280;69053;57.338;18.700;2023-06-10T13:28:39;102877.78;;;20.83;31.93
79584;BME280;69053;57.338;18.700;2023-06-10T13:33:40;102873.13;;;20.95;31.76
79584;BME280;69053;57.338;18.700;2023-06-10T13:38:40;102867.84;;;21.24;30.23
79584;BME280;69053;57.338;18.700;2023-06-10T13:43:41;102866.69;;;20.83;30.43
79584;BME280;69053;57.338;18.700;2023-06-10T13:48:42;102876.56;;;20.78;31.10
79584;BME280;69053;57.338;18.700;2023-06-10T13:53:54;102873.22;;;20.70;31.40
79584;BME280;69053;57.338;18.700;2023-06-10T13:59:50;102879.28;;;20.97;30.76
79584;BME280;69053;57.338;18.700;2023-06-10T14:05:26;102875.81;;;21.02;30.68
79584;BME280;69053;57.338;18.700;2023-06-10T15:06:49;102862.59;;;19.86;33.74
79584;BME280;69053;57.338;18.700;2023-06-10T15:11:50;102855.38;;;20.29;33.33
79584;BME280;69053;57.338;18.700;2023-06-10T15:16:52;102858.34;;;20.09;32.70
79584;BME280;69053;57.338;18.700;2023-06-10T15:21:55;102845.13;;;19.60;32.71
79584;BME280;69053;57.338;18.700;2023-06-10T15:26:57;102842.94;;;19.37;33.14
79584;BME280;69053;57.338;18.700;2023-06-10T15:31:57;102849.78;;;19.35;33.26
79584;BME280;69053;57.338;18.700;2023-06-10T15:37:00;102847.25;;;19.33;32.85
79584;BME280;69053;57.338;18.700;2023-06-10T15:42:02;102842.13;;;19.37;33.23
79584;BME280;69053;57.338;18.700;2023-06-10T15:47:03;102852.44;;;19.80;32.74
79584;BME280;69053;57.338;18.700;2023-06-10T15:52:04;102844.91;;;19.62;31.78
79584;BME280;69053;57.338;18.700;2023-06-10T15:57:05;102850.66;;;19.60;32.25
79584;BME280;69053;57.338;18.700;2023-06-10T16:02:06;102848.66;;;19.74;32.07
79584;BME280;69053;57.338;18.700;2023-06-10T17:27:13;102833.03;;;18.32;35.42
79584;BME280;69053;57.338;18.700;2023-06-10T17:32:14;102834.09;;;18.31;35.32
79584;BME280;69053;57.338;18.700;2023-06-10T17:37:18;102832.03;;;18.07;36.12
79584;BME280;69053;57.338;18.700;2023-06-10T17:42:18;102830.47;;;16.97;38.43
79584;BME280;69053;57.338;18.700;2023-06-10T17:47:22;102842.22;;;16.36;39.99
79584;BME280;69053;57.338;18.700;2023-06-10T17:52:22;102830.19;;;16.02;41.00
79584;BME280;69053;57.338;18.700;2023-06-10T17:57:23;102833.97;;;15.73;41.78
79584;BME280;69053;57.338;18.700;2023-06-10T18:02:23;102833.84;;;15.38;42.63
79584;BME280;69053;57.338;18.700;2023-06-10T18:07:24;102837.09;;;15.05;44.46
79584;BME280;69053;57.338;18.700;2023-06-10T18:12:25;102837.09;;;14.69;45.74
79584;BME280;69053;57.338;18.700;2023-06-10T18:17:26;102846.44;;;14.44;46.41
79584;BME280;69053;57.338;18.700;2023-06-10T18:22:26;102850.53;;;14.34;47.33
79584;BME280;69053;57.338;18.700;2023-06-10T18:27:27;102853.06;;;14.20;47.68
79584;BME280;69053;57.338;18.700;2023-06-10T18:32:27;102852.28;;;13.97;48.07
79584;BME280;69053;57.338;18.700;2023-06-10T18:37:28;102863.97;;;13.91;47.38
79584;BME280;69053;57.338;18.700;2023-06-10T18:42:28;102861.69;;;13.79;48.67
79584;BME280;69053;57.338;18.700;2023-06-10T18:47:29;102872.13;;;13.61;48.58
79584;BME280;69053;57.338;18.700;2023-06-10T18:52:30;102874.31;;;13.42;49.83
79584;BME280;69053;57.338;18.700;2023-06-10T18:57:30;102878.34;;;13.23;50.51
79584;BME280;69053;57.338;18.700;2023-06-10T19:02:31;102871.13;;;12.99;50.67
79584;BME280;69053;57.338;18.700;2023-06-10T19:07:32;102880.28;;;12.83;51.68
79584;BME280;69053;57.338;18.700;2023-06-10T19:12:33;102881.03;;;12.69;51.93
79584;BME280;69053;57.338;18.700;2023-06-10T19:17:33;102884.81;;;12.51;52.29
79584;BME280;69053;57.338;18.700;2023-06-10T19:22:34;102885.75;;;12.35;52.56
79584;BME280;69053;57.338;18.700;2023-06-10T19:27:35;102896.72;;;12.19;53.47
79584;BME280;69053;57.338;18.700;2023-06-10T19:32:35;102886.13;;;12.08;54.38
79584;BME280;69053;57.338;18.700;2023-06-10T19:37:36;102898.44;;;11.95;54.34
79584;BME280;69053;57.338;18.700;2023-06-10T19:42:46;102903.19;;;11.85;54.79
79584;BME280;69053;57.338;18.700;2023-06-10T19:47:46;102898.44;;;11.71;55.22
79584;BME280;69053;57.338;18.700;2023-06-10T19:52:53;102910.69;;;11.58;55.76
79584;BME280;69053;57.338;18.700;2023-06-10T19:57:56;102912.03;;;11.46;56.36
79584;BME280;69053;57.338;18.700;2023-06-10T20:02:56;102919.53;;;11.36;56.54
79584;BME280;69053;57.338;18.700;2023-06-10T20:07:57;102911.50;;;11.26;57.61
79584;BME280;69053;57.338;18.700;2023-06-10T20:12:57;102924.59;;;11.14;58.71
79584;BME280;69053;57.338;18.700;2023-06-10T20:18:01;102919.78;;;11.08;59.78
79584;BME280;69053;57.338;18.700;2023-06-10T20:23:04;102925.91;;;11.02;60.31
79584;BME280;69053;57.338;18.700;2023-06-10T20:28:05;102929.63;;;10.93;61.71
79584;BME280;69053;57.338;18.700;2023-06-10T20:33:06;102934.72;;;10.87;62.06
79584;BME280;69053;57.338;18.700;2023-06-10T20:38:07;102936.06;;;10.83;62.60
79584;BME280;69053;57.338;18.700;2023-06-10T20:43:07;102928.22;;;10.80;63.30
79584;BME280;69053;57.338;18.700;2023-06-10T20:48:08;102924.47;;;10.81;64.67
79584;BME280;69053;57.338;18.700;2023-06-10T20:53:08;102917.63;;;10.77;64.56
79584;BME280;69053;57.338;18.700;2023-06-10T20:58:09;102922.88;;;10.70;64.72
79584;BME280;69053;57.338;18.700;2023-06-10T21:03:10;102920.81;;;10.64;65.42
79584;BME280;69053;57.338;18.700;2023-06-10T21:08:10;102916.16;;;10.57;65.36
79584;BME280;69053;57.338;18.700;2023-06-10T21:13:13;102918.34;;;10.53;66.07
79584;BME280;69053;57.338;18.700;2023-06-10T21:18:14;102928.19;;;10.46;66.43
79584;BME280;69053;57.338;18.700;2023-06-10T21:23:14;102927.34;;;10.45;66.73
79584;BME280;69053;57.338;18.700;2023-06-10T21:28:15;102927.50;;;10.44;66.35
79584;BME280;69053;57.338;18.700;2023-06-10T21:33:16;102930.03;;;10.37;67.27
79584;BME280;69053;57.338;18.700;2023-06-10T21:38:19;102930.34;;;10.34;67.50
79584;BME280;69053;57.338;18.700;2023-06-10T21:43:20;102932.38;;;10.32;68.05
79584;BME280;69053;57.338;18.700;2023-06-10T21:48:20;102935.69;;;10.26;68.01
79584;BME280;69053;57.338;18.700;2023-06-10T21:53:22;102930.56;;;10.23;68.72
79584;BME280;69053;57.338;18.700;2023-06-10T21:58:23;102937.50;;;10.17;68.80
79584;BME280;69053;57.338;18.700;2023-06-10T22:03:26;102946.31;;;10.11;69.42
79584;BME280;69053;57.338;18.700;2023-06-10T22:08:27;102937.25;;;10.02;68.73
79584;BME280;69053;57.338;18.700;2023-06-10T22:13:28;102933.78;;;10.00;69.89
79584;BME280;69053;57.338;18.700;2023-06-10T22:18:29;102940.28;;;9.99;69.75
79584;BME280;69053;57.338;18.700;2023-06-10T22:23:32;102934.44;;;9.94;70.02
79584;BME280;69053;57.338;18.700;2023-06-10T22:28:33;102937.47;;;9.91;69.83
79584;BME280;69053;57.338;18.700;2023-06-10T22:33:33;102932.63;;;9.85;70.59
79584;BME280;69053;57.338;18.700;2023-06-10T22:38:34;102935.06;;;9.88;72.20
79584;BME280;69053;57.338;18.700;2023-06-10T22:43:34;102924.88;;;9.90;71.39
79584;BME280;69053;57.338;18.700;2023-06-10T22:48:35;102929.31;;;9.91;71.70
79584;BME280;69053;57.338;18.700;2023-06-10T22:53:36;102923.31;;;9.87;71.37
79584;BME280;69053;57.338;18.700;2023-06-10T22:58:36;102929.22;;;9.83;72.61
79584;BME280;69053;57.338;18.700;2023-06-10T23:03:37;102927.94;;;9.87;73.21
79584;BME280;69053;57.338;18.700;2023-06-10T23:08:37;102928.06;;;9.85;73.26
79584;BME280;69053;57.338;18.700;2023-06-10T23:13:38;102935.38;;;9.85;73.54
79584;BME280;69053;57.338;18.700;2023-06-10T23:18:39;102932.97;;;9.82;73.66
79584;BME280;69053;57.338;18.700;2023-06-10T23:23:40;102929.69;;;9.78;75.22
79584;BME280;69053;57.338;18.700;2023-06-10T23:28:40;102929.25;;;9.65;75.07
79584;BME280;69053;57.338;18.700;2023-06-10T23:33:41;102927.78;;;9.52;76.40
79584;BME280;69053;57.338;18.700;2023-06-10T23:38:42;102923.41;;;9.42;76.53
79584;BME280;69053;57.338;18.700;2023-06-10T23:43:42;102926.41;;;9.38;77.63
79584;BME280;69053;57.338;18.700;2023-06-10T23:48:43;102929.53;;;9.44;79.28
79584;BME280;69053;57.338;18.700;2023-06-10T23:53:43;102930.72;;;9.41;79.29
79584;BME280;69053;57.338;18.700;2023-06-10T23:58:44;102925.31;;;9.31;79.64
